createdAt,value
2023-04-24T00:00:59.715Z,9.719291
2023-04-24T00:01:59.818Z,9.719446
2023-04-24T00:02:59.854Z,9.719347
2023-04-24T00:03:59.745Z,9.719205
2023-04-24T00:04:59.704Z,9.719131
2023-04-24T00:05:59.687Z,9.719296
2023-04-24T00:06:59.687Z,9.719167
2023-04-24T00:07:59.688Z,9.719177
2023-04-24T00:08:59.620Z,9.719069
2023-04-24T00:09:59.603Z,9.718921
2023-04-24T00:10:59.660Z,9.719049
2023-04-24T00:11:59.602Z,9.719119
2023-04-24T00:12:59.602Z,9.719019
2023-04-24T00:13:59.577Z,9.719128
2023-04-24T00:14:59.552Z,9.719135
2023-04-24T00:15:59.604Z,9.719352
2023-04-24T00:16:59.619Z,9.719037
2023-04-24T00:17:59.629Z,9.719139
2023-04-24T00:18:59.560Z,9.719081
2023-04-24T00:19:59.623Z,9.719173
2023-04-24T00:20:59.495Z,9.719081
2023-04-24T00:21:59.515Z,9.719024
2023-04-24T00:22:59.485Z,9.718650
2023-04-24T00:23:59.492Z,9.718902
2023-04-24T00:24:59.474Z,9.718853
2023-04-24T00:25:59.461Z,9.718824
2023-04-24T00:26:59.464Z,9.718826
2023-04-24T00:27:59.468Z,9.718971
2023-04-24T00:29:00.322Z,9.718933
2023-04-24T00:29:59.403Z,9.718176
2023-04-24T00:30:59.434Z,9.718677
2023-04-24T00:31:59.458Z,9.719085
2023-04-24T00:32:59.483Z,9.719064
2023-04-24T00:33:59.395Z,9.719119
2023-04-24T00:34:59.382Z,9.719119
2023-04-24T00:35:59.408Z,9.719121
2023-04-24T00:36:59.387Z,9.719180
2023-04-24T00:37:59.350Z,9.719130
2023-04-24T00:38:59.374Z,9.719130
2023-04-24T00:39:59.313Z,9.719130
2023-04-24T00:40:59.292Z,9.719130
2023-04-24T00:42:00.330Z,9.719130
2023-04-24T00:42:59.374Z,9.719130
2023-04-24T00:43:59.287Z,9.719130
2023-04-24T00:44:59.279Z,9.719130
2023-04-24T00:45:59.268Z,9.719130
2023-04-24T00:46:59.250Z,9.719223
2023-04-24T00:47:59.326Z,9.719223
2023-04-24T00:48:59.230Z,9.719223
2023-04-24T00:49:59.243Z,9.719476
2023-04-24T00:50:59.254Z,9.719476
2023-04-24T00:51:59.214Z,9.719476
2023-04-24T00:52:59.231Z,9.719476
2023-04-24T00:53:59.187Z,9.719476
2023-04-24T00:54:59.204Z,9.719476
2023-04-24T00:55:59.165Z,9.719476
2023-04-24T00:56:59.150Z,9.719422
2023-04-24T00:57:59.140Z,9.719415
2023-04-24T00:58:59.135Z,9.719447
2023-04-24T00:59:59.152Z,9.719605
2023-04-24T01:00:59.201Z,9.719203
2023-04-24T01:01:59.110Z,9.719235
2023-04-24T01:02:59.280Z,9.719344
2023-04-24T01:03:59.224Z,9.719332
2023-04-24T01:04:59.092Z,9.719332
2023-04-24T01:05:59.098Z,9.719558
2023-04-24T01:06:59.070Z,9.719388
2023-04-24T01:07:59.046Z,9.719382
2023-04-24T01:08:59.074Z,9.719432
2023-04-24T01:09:59.018Z,9.719409
2023-04-24T01:10:59.024Z,9.719349
2023-04-24T01:11:58.994Z,9.719259
2023-04-24T01:12:59.020Z,9.719135
2023-04-24T01:13:58.992Z,9.719216
2023-04-24T01:14:59.016Z,9.719268
2023-04-24T01:15:59.024Z,9.719246
2023-04-24T01:16:58.973Z,9.719362
2023-04-24T01:17:58.969Z,9.719393
2023-04-24T01:18:58.932Z,9.719424
2023-04-24T01:19:58.997Z,9.719400
2023-04-24T01:20:58.918Z,9.719397
2023-04-24T01:21:58.896Z,9.719302
2023-04-24T01:22:58.914Z,9.719319
2023-04-24T01:23:58.904Z,9.719398
2023-04-24T01:24:58.888Z,9.719316
2023-04-24T01:25:58.894Z,9.719296
2023-04-24T01:26:58.866Z,9.719288
2023-04-24T01:27:58.857Z,9.719231
2023-04-24T01:28:58.881Z,9.719234
2023-04-24T01:29:58.877Z,9.719311
2023-04-24T01:30:58.893Z,9.719308
2023-04-24T01:31:58.796Z,9.719235
2023-04-24T01:32:58.853Z,9.719252
2023-04-24T01:33:58.808Z,9.719242
2023-04-24T01:34:58.846Z,9.719259
2023-04-24T01:35:58.772Z,9.719341
2023-04-24T01:36:58.751Z,9.719313
2023-04-24T01:37:58.738Z,9.719313
2023-04-24T01:38:58.758Z,9.719350
2023-04-24T01:39:58.753Z,9.719410
2023-04-24T01:40:58.710Z,9.719377
2023-04-24T01:41:58.726Z,9.719465
2023-04-24T01:42:58.699Z,9.719352
2023-04-24T01:43:58.695Z,9.719151
2023-04-24T01:44:58.681Z,9.719227
2023-04-24T01:45:58.668Z,9.719221
2023-04-24T01:46:58.789Z,9.719169
2023-04-24T01:47:58.743Z,9.718805
2023-04-24T01:48:58.644Z,9.719138
2023-04-24T01:49:58.637Z,9.719294
2023-04-24T01:50:58.646Z,9.719450
2023-04-24T01:51:58.630Z,9.719393
2023-04-24T01:52:58.615Z,9.719228
2023-04-24T01:53:58.586Z,9.719223
2023-04-24T01:54:58.571Z,9.719341
2023-04-24T01:55:58.588Z,9.719404
2023-04-24T01:56:58.581Z,9.719617
2023-04-24T01:57:58.546Z,9.719688
2023-04-24T01:58:58.597Z,9.719440
2023-04-24T01:59:58.554Z,9.719459
2023-04-24T02:00:58.663Z,9.719377
2023-04-24T02:01:58.519Z,9.719480
2023-04-24T02:02:58.607Z,9.719400
2023-04-24T02:03:58.591Z,9.719478
2023-04-24T02:04:58.485Z,9.719392
2023-04-24T02:05:58.506Z,9.719423
2023-04-24T02:06:58.473Z,9.719180
2023-04-24T02:07:58.437Z,9.719186
2023-04-24T02:08:58.440Z,9.719179
2023-04-24T02:09:58.421Z,9.719123
2023-04-24T02:10:58.444Z,9.719069
2023-04-24T02:11:58.396Z,9.719084
2023-04-24T02:12:58.387Z,9.719135
2023-04-24T02:13:58.406Z,9.719202
2023-04-24T02:14:58.404Z,9.719144
2023-04-24T02:15:58.420Z,9.719134
2023-04-24T02:16:58.363Z,9.719159
2023-04-24T02:17:58.360Z,9.719173
2023-04-24T02:18:58.374Z,9.719160
2023-04-24T02:19:58.339Z,9.719125
2023-04-24T02:20:58.332Z,9.719109
2023-04-24T02:21:58.305Z,9.719092
2023-04-24T02:22:58.302Z,9.719106
2023-04-24T02:23:58.280Z,9.719122
2023-04-24T02:24:58.288Z,9.719133
2023-04-24T02:25:58.296Z,9.719152
2023-04-24T02:26:58.291Z,9.719130
2023-04-24T02:27:58.253Z,9.719150
2023-04-24T02:28:58.233Z,9.719129
2023-04-24T02:29:58.220Z,9.719132
2023-04-24T02:30:58.206Z,9.719165
2023-04-24T02:31:58.311Z,9.719149
2023-04-24T02:32:58.192Z,9.719152
2023-04-24T02:33:58.244Z,9.719087
2023-04-24T02:34:58.243Z,9.719075
2023-04-24T02:35:58.218Z,9.719092
2023-04-24T02:36:58.158Z,9.719134
2023-04-24T02:37:58.830Z,9.719212
2023-04-24T02:38:58.151Z,9.719145
2023-04-24T02:39:58.156Z,9.719161
2023-04-24T02:40:58.121Z,9.719164
2023-04-24T02:41:58.099Z,9.719174
2023-04-24T02:42:58.095Z,9.719183
2023-04-24T02:43:58.112Z,9.719185
2023-04-24T02:44:58.837Z,9.719094
2023-04-24T02:45:58.087Z,9.719097
2023-04-24T02:46:58.059Z,9.719099
2023-04-24T02:47:58.092Z,9.719114
2023-04-24T02:48:58.064Z,9.719151
2023-04-24T02:49:58.013Z,9.719120
2023-04-24T02:50:58.046Z,9.719103
2023-04-24T02:51:58.021Z,9.719031
2023-04-24T02:52:57.986Z,9.719003
2023-04-24T02:53:58.057Z,9.719077
2023-04-24T02:54:57.972Z,9.719124
2023-04-24T02:55:57.976Z,9.719188
2023-04-24T02:56:57.950Z,9.719159
2023-04-24T02:57:57.942Z,9.719193
2023-04-24T02:58:57.956Z,9.719135
2023-04-24T02:59:57.952Z,9.719115
2023-04-24T03:01:29.845Z,9.719088
2023-04-24T03:01:57.891Z,9.719146
2023-04-24T03:02:58.039Z,9.719138
2023-04-24T03:03:58.060Z,9.719073
2023-04-24T03:04:57.862Z,9.719094
2023-04-24T03:05:57.836Z,9.719099
2023-04-24T03:06:58.870Z,9.719259
2023-04-24T03:07:57.848Z,9.719191
2023-04-24T03:08:57.843Z,9.719266
2023-04-24T03:09:57.810Z,9.719218
2023-04-24T03:10:57.808Z,9.719298
2023-04-24T03:11:57.789Z,9.719260
2023-04-24T03:12:57.787Z,9.719172
2023-04-24T03:13:57.795Z,9.719122
2023-04-24T03:14:57.763Z,9.719216
2023-04-24T03:15:57.806Z,9.719255
2023-04-24T03:16:57.748Z,9.719209
2023-04-24T03:17:57.757Z,9.719239
2023-04-24T03:18:57.746Z,9.719239
2023-04-24T03:19:57.738Z,9.719175
2023-04-24T03:20:57.723Z,9.719167
2023-04-24T03:21:57.705Z,9.719205
2023-04-24T03:22:57.689Z,9.719258
2023-04-24T03:23:57.693Z,9.719249
2023-04-24T03:24:57.661Z,9.719139
2023-04-24T03:25:57.669Z,9.719138
2023-04-24T03:26:57.657Z,9.719283
2023-04-24T03:27:57.645Z,9.719431
2023-04-24T03:28:57.624Z,9.719409
2023-04-24T03:29:57.609Z,9.719329
2023-04-24T03:30:57.614Z,9.719344
2023-04-24T03:31:57.653Z,9.719157
2023-04-24T03:32:57.608Z,9.719194
2023-04-24T03:33:57.572Z,9.719193
2023-04-24T03:34:57.559Z,9.719134
2023-04-24T03:35:57.566Z,9.719209
2023-04-24T03:36:57.535Z,9.719224
2023-04-24T03:37:57.561Z,9.719249
2023-04-24T03:38:57.517Z,9.719276
2023-04-24T03:39:57.518Z,9.719250
2023-04-24T03:40:57.521Z,9.719355
2023-04-24T03:41:57.535Z,9.719301
2023-04-24T03:42:57.474Z,9.719296
2023-04-24T03:43:57.485Z,9.719304
2023-04-24T03:44:57.457Z,9.719315
2023-04-24T03:45:57.490Z,9.719234
2023-04-24T03:46:57.473Z,9.719241
2023-04-24T03:47:57.503Z,9.719298
2023-04-24T03:48:57.477Z,9.719170
2023-04-24T03:49:57.431Z,9.719254
2023-04-24T03:50:57.424Z,9.719158
2023-04-24T03:51:57.410Z,9.719261
2023-04-24T03:52:57.384Z,9.719365
2023-04-24T03:53:57.370Z,9.719257
2023-04-24T03:54:57.365Z,9.719431
2023-04-24T03:55:57.368Z,9.719362
2023-04-24T03:56:57.378Z,9.719318
2023-04-24T03:57:57.351Z,9.719343
2023-04-24T03:58:57.327Z,9.719265
2023-04-24T03:59:57.311Z,9.719318
2023-04-24T04:00:57.334Z,9.719254
2023-04-24T04:01:57.299Z,9.719275
2023-04-24T04:02:57.449Z,9.719253
2023-04-24T04:03:57.456Z,9.719242
2023-04-24T04:04:57.286Z,9.719227
2023-04-24T04:05:57.256Z,9.719247
2023-04-24T04:06:57.231Z,9.719269
2023-04-24T04:07:57.234Z,9.719243
2023-04-24T04:08:57.233Z,9.719209
2023-04-24T04:09:57.200Z,9.719227
2023-04-24T04:10:57.222Z,9.719242
2023-04-24T04:11:57.189Z,9.719220
2023-04-24T04:12:57.170Z,9.719221
2023-04-24T04:13:57.222Z,9.719204
2023-04-24T04:14:57.189Z,9.719181
2023-04-24T04:15:57.211Z,9.719170
2023-04-24T04:16:57.228Z,9.719139
2023-04-24T04:17:57.169Z,9.719231
2023-04-24T04:18:57.169Z,9.719207
2023-04-24T04:19:57.104Z,9.719193
2023-04-24T04:20:57.124Z,9.719091
2023-04-24T04:21:57.166Z,9.719136
2023-04-24T04:22:57.072Z,9.719262
2023-04-24T04:23:57.071Z,9.719298
2023-04-24T04:24:57.048Z,9.719252
2023-04-24T04:25:58.071Z,9.719110
2023-04-24T04:26:57.052Z,9.719018
2023-04-24T04:27:57.024Z,9.719154
2023-04-24T04:28:57.020Z,9.719005
2023-04-24T04:29:57.837Z,9.718946
2023-04-24T04:30:57.016Z,9.718854
2023-04-24T04:31:57.078Z,9.719110
2023-04-24T04:32:57.036Z,9.719288
2023-04-24T04:33:56.968Z,9.719146
2023-04-24T04:34:56.990Z,9.719182
2023-04-24T04:35:56.943Z,9.719238
2023-04-24T04:36:56.985Z,9.719121
2023-04-24T04:37:56.942Z,9.719133
2023-04-24T04:38:56.925Z,9.719034
2023-04-24T04:39:56.929Z,9.718921
2023-04-24T04:40:56.898Z,9.719154
2023-04-24T04:41:56.895Z,9.719174
2023-04-24T04:42:57.888Z,9.719329
2023-04-24T04:43:56.880Z,9.719304
2023-04-24T04:44:56.894Z,9.719268
2023-04-24T04:45:57.017Z,9.719176
2023-04-24T04:46:56.853Z,9.718939
2023-04-24T04:47:56.884Z,9.719172
2023-04-24T04:48:56.816Z,9.718965
2023-04-24T04:49:56.860Z,9.719057
2023-04-24T04:50:56.803Z,9.719267
2023-04-24T04:51:56.839Z,9.719335
2023-04-24T04:52:56.784Z,9.719261
2023-04-24T04:53:56.766Z,9.719236
2023-04-24T04:54:56.779Z,9.719320
2023-04-24T04:55:57.746Z,9.719345
2023-04-24T04:56:56.850Z,9.719352
2023-04-24T04:57:56.768Z,9.719218
2023-04-24T04:58:56.723Z,9.719292
2023-04-24T04:59:56.705Z,9.719170
2023-04-24T05:00:56.746Z,9.719199
2023-04-24T05:01:56.720Z,9.719204
2023-04-24T05:03:05.973Z,9.719211
2023-04-24T05:03:58.821Z,9.719204
2023-04-24T05:04:56.729Z,9.719171
2023-04-24T05:05:56.675Z,9.719241
2023-04-24T05:06:56.634Z,9.719320
2023-04-24T05:07:56.638Z,9.719206
2023-04-24T05:08:56.614Z,9.719184
2023-04-24T05:09:56.626Z,9.719217
2023-04-24T05:10:56.614Z,9.719236
2023-04-24T05:11:56.602Z,9.719197
2023-04-24T05:12:56.602Z,9.719245
2023-04-24T05:13:56.569Z,9.719240
2023-04-24T05:14:56.563Z,9.719243
2023-04-24T05:15:56.552Z,9.719328
2023-04-24T05:16:56.637Z,9.719280
2023-04-24T05:17:57.957Z,9.719342
2023-04-24T05:18:57.513Z,9.719316
2023-04-24T05:19:56.514Z,9.719224
2023-04-24T05:20:56.505Z,9.719320
2023-04-24T05:21:56.506Z,9.719400
2023-04-24T05:22:56.516Z,9.719286
2023-04-24T05:23:56.471Z,9.719338
2023-04-24T05:24:56.454Z,9.719337
2023-04-24T05:25:56.521Z,9.719288
2023-04-24T05:26:56.461Z,9.719282
2023-04-24T05:27:56.424Z,9.719443
2023-04-24T05:28:56.420Z,9.719272
2023-04-24T05:29:56.435Z,9.719104
2023-04-24T05:30:56.427Z,9.719134
2023-04-24T05:31:56.455Z,9.719222
2023-04-24T05:32:56.423Z,9.719178
2023-04-24T05:33:56.376Z,9.719319
2023-04-24T05:34:56.364Z,9.719289
2023-04-24T05:35:56.362Z,9.719115
2023-04-24T05:36:56.372Z,9.719142
2023-04-24T05:37:56.375Z,9.719217
2023-04-24T05:38:56.333Z,9.719209
2023-04-24T05:39:56.308Z,9.719352
2023-04-24T05:40:56.315Z,9.719381
2023-04-24T05:41:56.282Z,9.719407
2023-04-24T05:42:56.326Z,9.719420
2023-04-24T05:43:56.295Z,9.719365
2023-04-24T05:44:57.932Z,9.719327
2023-04-24T05:45:56.316Z,9.719401
2023-04-24T05:46:56.335Z,9.719333
2023-04-24T05:47:56.253Z,9.719316
2023-04-24T05:48:56.249Z,9.719334
2023-04-24T05:49:56.211Z,9.719427
2023-04-24T05:50:56.200Z,9.719406
2023-04-24T05:51:56.241Z,9.719378
2023-04-24T05:52:56.183Z,9.719234
2023-04-24T05:53:56.266Z,9.719524
2023-04-24T05:54:56.151Z,9.719390
2023-04-24T05:55:56.156Z,9.719336
2023-04-24T05:56:56.186Z,9.719456
2023-04-24T05:57:56.137Z,9.719511
2023-04-24T05:58:56.138Z,9.719535
2023-04-24T05:59:56.135Z,9.719528
2023-04-24T06:00:56.097Z,9.719382
2023-04-24T06:01:56.096Z,9.719328
2023-04-24T06:02:56.226Z,9.719219
2023-04-24T06:03:56.145Z,9.719163
2023-04-24T06:04:56.212Z,9.719337
2023-04-24T06:05:56.039Z,9.719302
2023-04-24T06:06:56.032Z,9.719301
2023-04-24T06:07:56.016Z,9.719377
2023-04-24T06:08:56.038Z,9.719514
2023-04-24T06:09:56.025Z,9.719428
2023-04-24T06:10:56.083Z,9.719286
2023-04-24T06:11:55.986Z,9.719459
2023-04-24T06:12:55.966Z,9.719501
2023-04-24T06:13:55.958Z,9.719569
2023-04-24T06:14:55.961Z,9.719259
2023-04-24T06:15:55.979Z,9.719486
2023-04-24T06:16:56.054Z,9.719533
2023-04-24T06:17:55.949Z,9.719452
2023-04-24T06:18:55.916Z,9.719666
2023-04-24T06:19:55.907Z,9.719433
2023-04-24T06:20:55.915Z,9.719449
2023-04-24T06:21:55.926Z,9.719361
2023-04-24T06:22:55.870Z,9.719068
2023-04-24T06:23:55.865Z,9.719194
2023-04-24T06:24:55.852Z,9.719234
2023-04-24T06:25:56.864Z,9.719117
2023-04-24T06:26:55.850Z,9.719285
2023-04-24T06:27:55.837Z,9.719440
2023-04-24T06:28:55.832Z,9.719626
2023-04-24T06:29:55.830Z,9.719853
2023-04-24T06:30:55.813Z,9.720227
2023-04-24T06:31:55.822Z,9.720200
2023-04-24T06:32:58.722Z,9.720200
2023-04-24T06:33:57.787Z,9.720200
2023-04-24T06:34:56.064Z,9.720200
2023-04-24T06:35:55.745Z,9.720200
2023-04-24T06:36:55.752Z,9.720200
2023-04-24T06:37:55.810Z,9.720200
2023-04-24T06:38:55.739Z,9.720200
2023-04-24T06:39:55.698Z,9.720200
2023-04-24T06:40:55.694Z,9.720200
2023-04-24T06:41:55.684Z,9.720200
2023-04-24T06:42:55.687Z,9.720200
2023-04-24T06:43:55.658Z,9.720200
2023-04-24T06:44:55.693Z,9.720200
2023-04-24T06:45:55.648Z,9.719156
2023-04-24T06:46:55.642Z,9.719205
2023-04-24T06:47:55.665Z,9.719286
2023-04-24T06:48:55.620Z,9.719304
2023-04-24T06:49:55.734Z,9.719297
2023-04-24T06:50:55.589Z,9.719374
2023-04-24T06:51:55.622Z,9.719295
2023-04-24T06:52:55.574Z,9.719270
2023-04-24T06:53:55.554Z,9.719232
2023-04-24T06:54:55.545Z,9.719281
2023-04-24T06:55:55.556Z,9.719258
2023-04-24T06:56:55.539Z,9.719253
2023-04-24T06:57:55.546Z,9.719182
2023-04-24T06:58:55.520Z,9.719223
2023-04-24T06:59:55.504Z,9.719212
2023-04-24T07:00:55.531Z,9.719168
2023-04-24T07:01:55.885Z,9.719130
2023-04-24T07:02:55.655Z,9.719174
2023-04-24T07:03:55.969Z,9.719192
2023-04-24T07:04:55.456Z,9.719123
2023-04-24T07:05:55.447Z,9.719213
2023-04-24T07:06:55.427Z,9.719193
2023-04-24T07:07:55.424Z,9.719169
2023-04-24T07:08:55.459Z,9.719106
2023-04-24T07:09:55.439Z,9.719142
2023-04-24T07:10:55.389Z,9.719171
2023-04-24T07:11:55.377Z,9.719182
2023-04-24T07:12:55.375Z,9.719193
2023-04-24T07:13:55.354Z,9.719125
2023-04-24T07:14:55.405Z,9.719124
2023-04-24T07:15:55.376Z,9.719102
2023-04-24T07:16:55.323Z,9.719152
2023-04-24T07:17:55.348Z,9.719206
2023-04-24T07:18:55.309Z,9.719110
2023-04-24T07:19:55.305Z,9.719175
2023-04-24T07:20:55.314Z,9.719219
2023-04-24T07:21:55.277Z,9.719170
2023-04-24T07:22:55.284Z,9.719158
2023-04-24T07:23:55.276Z,9.719117
2023-04-24T07:24:55.258Z,9.719144
2023-04-24T07:25:55.238Z,9.719141
2023-04-24T07:26:55.260Z,9.719225
2023-04-24T07:27:55.219Z,9.719229
2023-04-24T07:28:55.217Z,9.719230
2023-04-24T07:29:55.272Z,9.719106
2023-04-24T07:30:55.276Z,9.719152
2023-04-24T07:31:55.275Z,9.719134
2023-04-24T07:32:55.202Z,9.719172
2023-04-24T07:33:55.185Z,9.719159
2023-04-24T07:34:55.158Z,9.719080
2023-04-24T07:35:55.150Z,9.719106
2023-04-24T07:36:55.143Z,9.719056
2023-04-24T07:37:55.134Z,9.719093
2023-04-24T07:38:55.138Z,9.719177
2023-04-24T07:39:55.103Z,9.719097
2023-04-24T07:40:55.104Z,9.719124
2023-04-24T07:41:55.095Z,9.719187
2023-04-24T07:42:55.067Z,9.719205
2023-04-24T07:43:55.054Z,9.719139
2023-04-24T07:44:55.080Z,9.719246
2023-04-24T07:45:55.089Z,9.719248
2023-04-24T07:46:55.200Z,9.719152
2023-04-24T07:47:55.074Z,9.719192
2023-04-24T07:49:05.684Z,9.719114
2023-04-24T07:49:57.042Z,9.719224
2023-04-24T07:50:54.996Z,9.719259
2023-04-24T07:51:54.972Z,9.719193
2023-04-24T07:52:54.998Z,9.719258
2023-04-24T07:53:54.961Z,9.719183
2023-04-24T07:54:54.964Z,9.719211
2023-04-24T07:55:54.935Z,9.719234
2023-04-24T07:56:54.977Z,9.719197
2023-04-24T07:57:54.949Z,9.719205
2023-04-24T07:58:54.919Z,9.719288
2023-04-24T07:59:54.914Z,9.719052
2023-04-24T08:00:54.943Z,9.719076
2023-04-24T08:01:55.107Z,9.719286
2023-04-24T08:02:54.993Z,9.718933
2023-04-24T08:03:55.149Z,9.719068
2023-04-24T08:04:55.060Z,9.719433
2023-04-24T08:05:54.956Z,9.719224
2023-04-24T08:06:54.932Z,9.719254
2023-04-24T08:07:54.904Z,9.719384
2023-04-24T08:08:55.004Z,9.719248
2023-04-24T08:09:54.877Z,9.718740
2023-04-24T08:10:54.846Z,9.719164
2023-04-24T08:11:54.809Z,9.719313
2023-04-24T08:12:54.796Z,9.719113
2023-04-24T08:13:55.986Z,9.718881
2023-04-24T08:14:54.779Z,9.719025
2023-04-24T08:15:54.818Z,9.719189
2023-04-24T08:16:54.742Z,9.719209
2023-04-24T08:17:55.746Z,9.719136
2023-04-24T08:18:54.712Z,9.719115
2023-04-24T08:19:54.709Z,9.718956
2023-04-24T08:20:54.693Z,9.719140
2023-04-24T08:21:54.686Z,9.719064
2023-04-24T08:22:54.697Z,9.719238
2023-04-24T08:23:54.658Z,9.719215
2023-04-24T08:24:54.643Z,9.719118
2023-04-24T08:25:54.647Z,9.719131
2023-04-24T08:26:54.927Z,9.719183
2023-04-24T08:27:54.773Z,9.719162
2023-04-24T08:28:54.607Z,9.719199
2023-04-24T08:29:54.604Z,9.719239
2023-04-24T08:30:54.614Z,9.719036
2023-04-24T08:31:54.658Z,9.719221
2023-04-24T08:32:54.644Z,9.719254
2023-04-24T08:33:54.580Z,9.719127
2023-04-24T08:34:54.582Z,9.719139
2023-04-24T08:35:54.540Z,9.719116
2023-04-24T08:36:54.533Z,9.719073
2023-04-24T08:37:54.555Z,9.719147
2023-04-24T08:38:54.521Z,9.719158
2023-04-24T08:39:54.511Z,9.719129
2023-04-24T08:40:54.490Z,9.719093
2023-04-24T08:41:54.494Z,9.719141
2023-04-24T08:42:54.459Z,9.719144
2023-04-24T08:43:54.474Z,9.719048
2023-04-24T08:44:54.450Z,9.719020
2023-04-24T08:45:56.605Z,9.719102
2023-04-24T08:46:55.506Z,9.719146
2023-04-24T08:47:54.472Z,9.719103
2023-04-24T08:48:54.441Z,9.719177
2023-04-24T08:49:54.403Z,9.719252
2023-04-24T08:50:54.408Z,9.719190
2023-04-24T08:51:54.374Z,9.719184
2023-04-24T08:52:54.367Z,9.719138
2023-04-24T08:53:54.373Z,9.719125
2023-04-24T08:54:54.363Z,9.719060
2023-04-24T08:55:54.338Z,9.719207
2023-04-24T08:56:54.316Z,9.719165
2023-04-24T08:57:54.321Z,9.719068
2023-04-24T08:58:54.301Z,9.719125
2023-04-24T08:59:54.347Z,9.719088
2023-04-24T09:00:54.323Z,9.719054
2023-04-24T09:02:26.356Z,9.719153
2023-04-24T09:02:54.366Z,9.719250
2023-04-24T09:03:54.532Z,9.719269
2023-04-24T09:04:54.251Z,9.719540
2023-04-24T09:05:54.257Z,9.719206
2023-04-24T09:06:54.222Z,9.718901
2023-04-24T09:07:54.235Z,9.719225
2023-04-24T09:08:54.284Z,9.718589
2023-04-24T09:09:54.232Z,9.718638
2023-04-24T09:10:54.206Z,9.719060
2023-04-24T09:11:54.205Z,9.718884
2023-04-24T09:12:54.181Z,9.718900
2023-04-24T09:13:54.163Z,9.719635
2023-04-24T09:14:54.158Z,9.720282
2023-04-24T09:15:54.150Z,9.720419
2023-04-24T09:16:54.248Z,9.720014
2023-04-24T09:17:54.176Z,9.720014
2023-04-24T09:18:54.121Z,9.720014
2023-04-24T09:19:54.120Z,9.719300
2023-04-24T09:20:54.101Z,9.719300
2023-04-24T09:21:54.127Z,9.719300
2023-04-24T09:22:54.067Z,9.719300
2023-04-24T09:23:54.078Z,9.719300
2023-04-24T09:24:54.063Z,9.719300
2023-04-24T09:25:54.063Z,9.719300
2023-04-24T09:26:54.050Z,9.719300
2023-04-24T09:27:54.031Z,9.719258
2023-04-24T09:28:53.994Z,9.719409
2023-04-24T09:29:54.032Z,9.719084
2023-04-24T09:30:54.009Z,9.719270
2023-04-24T09:31:54.006Z,9.719266
2023-04-24T09:32:54.030Z,9.719220
2023-04-24T09:33:53.970Z,9.719152
2023-04-24T09:34:54.007Z,9.719405
2023-04-24T09:35:53.959Z,9.719440
2023-04-24T09:36:53.920Z,9.719061
2023-04-24T09:37:53.930Z,9.719420
2023-04-24T09:38:53.924Z,9.719420
2023-04-24T09:39:53.876Z,9.719414
2023-04-24T09:40:53.899Z,9.719394
2023-04-24T09:41:53.920Z,9.719510
2023-04-24T09:42:53.876Z,9.719516
2023-04-24T09:43:53.844Z,9.719492
2023-04-24T09:45:01.567Z,9.719484
2023-04-24T09:45:58.023Z,9.719432
2023-04-24T09:46:53.831Z,9.719241
2023-04-24T09:47:53.840Z,9.719254
2023-04-24T09:48:53.786Z,9.719272
2023-04-24T09:49:53.803Z,9.719136
2023-04-24T09:50:53.783Z,9.718719
2023-04-24T09:51:53.760Z,9.718736
2023-04-24T09:52:53.751Z,9.718779
2023-04-24T09:53:53.776Z,9.718809
2023-04-24T09:54:53.741Z,9.719011
2023-04-24T09:55:53.721Z,9.719168
2023-04-24T09:56:53.709Z,9.719206
2023-04-24T09:57:53.706Z,9.719252
2023-04-24T09:58:53.710Z,9.719368
2023-04-24T09:59:53.690Z,9.719338
2023-04-24T10:00:53.674Z,9.719242
2023-04-24T10:01:53.770Z,9.719152
2023-04-24T10:02:53.731Z,9.719136
2023-04-24T10:03:53.650Z,9.719245
2023-04-24T10:04:53.669Z,9.719449
2023-04-24T10:05:53.676Z,9.719490
2023-04-24T10:06:53.623Z,9.719333
2023-04-24T10:07:53.596Z,9.719363
2023-04-24T10:08:53.599Z,9.719393
2023-04-24T10:09:53.598Z,9.719442
2023-04-24T10:10:53.629Z,9.719427
2023-04-24T10:11:53.555Z,9.719417
2023-04-24T10:12:53.586Z,9.719432
2023-04-24T10:13:53.526Z,9.719469
2023-04-24T10:14:53.571Z,9.719399
2023-04-24T10:15:53.540Z,9.719418
2023-04-24T10:16:53.563Z,9.719427
2023-04-24T10:17:53.599Z,9.719399
2023-04-24T10:18:53.503Z,9.719371
2023-04-24T10:19:53.553Z,9.719433
2023-04-24T10:20:53.518Z,9.719321
2023-04-24T10:21:53.473Z,9.719379
2023-04-24T10:22:53.488Z,9.719225
2023-04-24T10:23:53.452Z,9.719377
2023-04-24T10:24:53.504Z,9.719391
2023-04-24T10:25:53.449Z,9.719398
2023-04-24T10:26:53.426Z,9.719356
2023-04-24T10:27:53.428Z,9.719435
2023-04-24T10:28:53.442Z,9.719377
2023-04-24T10:29:53.402Z,9.719350
2023-04-24T10:30:53.403Z,9.719265
2023-04-24T10:31:53.396Z,9.719381
2023-04-24T10:32:53.398Z,9.719385
2023-04-24T10:33:53.371Z,9.719421
2023-04-24T10:34:53.340Z,9.719365
2023-04-24T10:35:53.339Z,9.719437
2023-04-24T10:36:54.348Z,9.719440
2023-04-24T10:37:53.297Z,9.719337
2023-04-24T10:38:53.291Z,9.719410
2023-04-24T10:39:53.323Z,9.719319
2023-04-24T10:40:53.296Z,9.719275
2023-04-24T10:41:53.299Z,9.719208
2023-04-24T10:42:53.349Z,9.719187
2023-04-24T10:43:53.277Z,9.719226
2023-04-24T10:44:53.362Z,9.719254
2023-04-24T10:45:53.218Z,9.719157
2023-04-24T10:46:53.218Z,9.719404
2023-04-24T10:47:53.276Z,9.719233
2023-04-24T10:48:53.222Z,9.719367
2023-04-24T10:49:53.208Z,9.719453
2023-04-24T10:50:53.180Z,9.719263
2023-04-24T10:51:53.148Z,9.719259
2023-04-24T10:52:53.204Z,9.719201
2023-04-24T10:53:54.182Z,9.719120
2023-04-24T10:54:53.155Z,9.719127
2023-04-24T10:55:53.169Z,9.719084
2023-04-24T10:56:53.192Z,9.719107
2023-04-24T10:57:53.123Z,9.719147
2023-04-24T10:58:53.117Z,9.719206
2023-04-24T10:59:53.157Z,9.719116
2023-04-24T11:00:53.092Z,9.719170
2023-04-24T11:01:53.062Z,9.719171
2023-04-24T11:02:53.138Z,9.719137
2023-04-24T11:03:53.269Z,9.719181
2023-04-24T11:04:53.064Z,9.719151
2023-04-24T11:05:53.079Z,9.719262
2023-04-24T11:06:53.024Z,9.719169
2023-04-24T11:07:53.005Z,9.719270
2023-04-24T11:08:52.995Z,9.719218
2023-04-24T11:09:52.979Z,9.719050
2023-04-24T11:10:52.989Z,9.719228
2023-04-24T11:11:52.992Z,9.719215
2023-04-24T11:12:52.996Z,9.719234
2023-04-24T11:13:52.979Z,9.719296
2023-04-24T11:14:52.916Z,9.719223
2023-04-24T11:15:52.909Z,9.719228
2023-04-24T11:16:52.983Z,9.719185
2023-04-24T11:17:52.974Z,9.719154
2023-04-24T11:18:52.915Z,9.719160
2023-04-24T11:19:54.572Z,9.719138
2023-04-24T11:20:52.856Z,9.719176
2023-04-24T11:21:52.897Z,9.719202
2023-04-24T11:22:52.878Z,9.719182
2023-04-24T11:23:52.861Z,9.719070
2023-04-24T11:24:52.848Z,9.719333
2023-04-24T11:25:52.816Z,9.719428
2023-04-24T11:26:52.813Z,9.719477
2023-04-24T11:27:52.810Z,9.719391
2023-04-24T11:28:52.805Z,9.719405
2023-04-24T11:29:52.764Z,9.719438
2023-04-24T11:30:52.773Z,9.719472
2023-04-24T11:31:52.775Z,9.719572
2023-04-24T11:32:52.765Z,9.719509
2023-04-24T11:33:52.742Z,9.719448
2023-04-24T11:34:52.743Z,9.719348
2023-04-24T11:35:52.733Z,9.719378
2023-04-24T11:36:52.741Z,9.719389
2023-04-24T11:38:52.677Z,9.719593
2023-04-24T11:39:52.693Z,9.719466
2023-04-24T11:40:52.716Z,9.719366
2023-04-24T11:41:52.668Z,9.719354
2023-04-24T11:42:52.660Z,9.719455
2023-04-24T11:43:52.645Z,9.719480
2023-04-24T11:44:52.613Z,9.719340
2023-04-24T11:45:52.704Z,9.719254